sensor_id;sensor_type;location;lat;lon;timestamp;P1;durP1;ratioP1;P2;durP2;ratioP2
20669;SDS011;10494;50.868;4.180;2022-12-18T00:02:21;63.97;;;28.27;;
20669;SDS011;10494;50.868;4.180;2022-12-18T00:04:47;65.07;;;28.13;;
20669;SDS011;10494;50.868;4.180;2022-12-18T00:07:13;68.20;;;29.67;;
20669;SDS011;10494;50.868;4.180;2022-12-18T00:09:38;70.27;;;29.07;;
20669;SDS011;10494;50.868;4.180;2022-12-18T00:12:04;69.17;;;29.00;;
20669;SDS011;10494;50.868;4.180;2022-12-18T00:14:29;68.70;;;29.50;;
20669;SDS011;10494;50.868;4.180;2022-12-18T00:16:55;67.23;;;27.83;;
20669;SDS011;10494;50.868;4.180;2022-12-18T00:19:23;69.60;;;30.50;;
20669;SDS011;10494;50.868;4.180;2022-12-18T00:21:48;70.40;;;29.07;;
20669;SDS011;10494;50.868;4.180;2022-12-18T00:24:14;67.37;;;29.43;;
20669;SDS011;10494;50.868;4.180;2022-12-18T00:26:40;60.03;;;28.43;;
20669;SDS011;10494;50.868;4.180;2022-12-18T00:29:07;67.97;;;29.63;;
20669;SDS011;10494;50.868;4.180;2022-12-18T00:31:38;72.67;;;30.53;;
20669;SDS011;10494;50.868;4.180;2022-12-18T00:34:04;73.80;;;30.50;;
20669;SDS011;10494;50.868;4.180;2022-12-18T00:36:32;66.27;;;28.40;;
20669;SDS011;10494;50.868;4.180;2022-12-18T00:38:59;68.53;;;29.70;;
20669;SDS011;10494;50.868;4.180;2022-12-18T00:41:26;65.47;;;29.40;;
20669;SDS011;10494;50.868;4.180;2022-12-18T00:44:11;61.57;;;28.77;;
20669;SDS011;10494;50.868;4.180;2022-12-18T00:46:38;66.60;;;27.27;;
20669;SDS011;10494;50.868;4.180;2022-12-18T00:49:05;68.97;;;28.30;;
20669;SDS011;10494;50.868;4.180;2022-12-18T00:51:30;66.07;;;28.67;;
20669;SDS011;10494;50.868;4.180;2022-12-18T00:53:56;76.13;;;31.40;;
20669;SDS011;10494;50.868;4.180;2022-12-18T00:56:22;68.87;;;27.10;;
20669;SDS011;10494;50.868;4.180;2022-12-18T00:58:48;71.93;;;29.37;;
20669;SDS011;10494;50.868;4.180;2022-12-18T01:01:14;62.90;;;27.50;;
20669;SDS011;10494;50.868;4.180;2022-12-18T01:03:40;66.17;;;27.70;;
20669;SDS011;10494;50.868;4.180;2022-12-18T01:06:10;58.27;;;25.60;;
20669;SDS011;10494;50.868;4.180;2022-12-18T01:08:36;65.43;;;27.67;;
20669;SDS011;10494;50.868;4.180;2022-12-18T01:11:36;67.57;;;28.63;;
20669;SDS011;10494;50.868;4.180;2022-12-18T01:13:54;69.33;;;27.27;;
20669;SDS011;10494;50.868;4.180;2022-12-18T01:16:20;66.03;;;27.53;;
20669;SDS011;10494;50.868;4.180;2022-12-18T01:18:46;60.27;;;27.20;;
20669;SDS011;10494;50.868;4.180;2022-12-18T01:21:14;67.23;;;27.87;;
20669;SDS011;10494;50.868;4.180;2022-12-18T01:23:44;58.90;;;27.10;;
20669;SDS011;10494;50.868;4.180;2022-12-18T01:26:11;62.37;;;26.77;;
20669;SDS011;10494;50.868;4.180;2022-12-18T01:28:40;64.33;;;27.90;;
20669;SDS011;10494;50.868;4.180;2022-12-18T01:31:10;62.60;;;26.73;;
20669;SDS011;10494;50.868;4.180;2022-12-18T01:33:46;67.13;;;28.07;;
20669;SDS011;10494;50.868;4.180;2022-12-18T01:36:19;56.60;;;24.77;;
20669;SDS011;10494;50.868;4.180;2022-12-18T01:38:45;63.70;;;27.70;;
20669;SDS011;10494;50.868;4.180;2022-12-18T01:41:11;66.43;;;27.70;;
20669;SDS011;10494;50.868;4.180;2022-12-18T01:43:48;64.43;;;29.17;;
20669;SDS011;10494;50.868;4.180;2022-12-18T01:46:14;62.03;;;27.20;;
20669;SDS011;10494;50.868;4.180;2022-12-18T01:48:41;64.57;;;27.57;;
20669;SDS011;10494;50.868;4.180;2022-12-18T01:51:10;67.87;;;27.73;;
20669;SDS011;10494;50.868;4.180;2022-12-18T01:53:37;66.20;;;27.00;;
20669;SDS011;10494;50.868;4.180;2022-12-18T01:56:05;61.90;;;27.07;;
20669;SDS011;10494;50.868;4.180;2022-12-18T02:01:27;67.30;;;27.97;;
20669;SDS011;10494;50.868;4.180;2022-12-18T02:03:54;60.20;;;25.50;;
20669;SDS011;10494;50.868;4.180;2022-12-18T02:06:32;61.80;;;26.57;;
20669;SDS011;10494;50.868;4.180;2022-12-18T02:11:59;65.17;;;26.10;;
20669;SDS011;10494;50.868;4.180;2022-12-18T02:14:32;59.40;;;26.53;;
20669;SDS011;10494;50.868;4.180;2022-12-18T02:17:17;61.87;;;26.77;;
20669;SDS011;10494;50.868;4.180;2022-12-18T02:25:43;58.67;;;25.47;;
20669;SDS011;10494;50.868;4.180;2022-12-18T02:28:37;61.43;;;26.80;;
20669;SDS011;10494;50.868;4.180;2022-12-18T02:31:07;76.80;;;28.90;;
20669;SDS011;10494;50.868;4.180;2022-12-18T02:33:36;61.63;;;26.93;;
20669;SDS011;10494;50.868;4.180;2022-12-18T02:36:03;66.57;;;25.90;;
20669;SDS011;10494;50.868;4.180;2022-12-18T02:38:30;60.13;;;25.80;;
20669;SDS011;10494;50.868;4.180;2022-12-18T02:40:57;58.80;;;24.47;;
20669;SDS011;10494;50.868;4.180;2022-12-18T02:43:23;60.90;;;27.10;;
20669;SDS011;10494;50.868;4.180;2022-12-18T02:45:53;63.87;;;25.90;;
20669;SDS011;10494;50.868;4.180;2022-12-18T02:48:26;60.17;;;25.67;;
20669;SDS011;10494;50.868;4.180;2022-12-18T02:56:14;61.97;;;26.30;;
20669;SDS011;10494;50.868;4.180;2022-12-18T03:03:59;58.40;;;25.63;;
20669;SDS011;10494;50.868;4.180;2022-12-18T03:06:30;65.60;;;25.80;;
20669;SDS011;10494;50.868;4.180;2022-12-18T03:09:06;75.50;;;28.73;;
20669;SDS011;10494;50.868;4.180;2022-12-18T03:11:37;59.90;;;26.17;;
20669;SDS011;10494;50.868;4.180;2022-12-18T03:14:25;63.73;;;24.90;;
20669;SDS011;10494;50.868;4.180;2022-12-18T03:16:57;54.60;;;25.33;;
20669;SDS011;10494;50.868;4.180;2022-12-18T03:19:29;66.73;;;26.77;;
20669;SDS011;10494;50.868;4.180;2022-12-18T03:21:57;89.30;;;25.80;;
20669;SDS011;10494;50.868;4.180;2022-12-18T03:24:26;58.63;;;25.37;;
20669;SDS011;10494;50.868;4.180;2022-12-18T03:26:56;56.40;;;23.33;;
20669;SDS011;10494;50.868;4.180;2022-12-18T03:29:27;56.93;;;25.13;;
20669;SDS011;10494;50.868;4.180;2022-12-18T03:32:00;56.47;;;24.73;;
20669;SDS011;10494;50.868;4.180;2022-12-18T03:34:31;55.73;;;24.37;;
20669;SDS011;10494;50.868;4.180;2022-12-18T03:36:59;58.30;;;23.73;;
20669;SDS011;10494;50.868;4.180;2022-12-18T03:39:25;60.83;;;24.67;;
20669;SDS011;10494;50.868;4.180;2022-12-18T03:44:45;55.03;;;24.13;;
20669;SDS011;10494;50.868;4.180;2022-12-18T03:47:33;53.20;;;22.87;;
20669;SDS011;10494;50.868;4.180;2022-12-18T03:52:45;53.50;;;22.90;;
20669;SDS011;10494;50.868;4.180;2022-12-18T03:55:18;61.07;;;24.43;;
20669;SDS011;10494;50.868;4.180;2022-12-18T03:57:45;54.03;;;23.20;;
20669;SDS011;10494;50.868;4.180;2022-12-18T04:00:14;55.60;;;24.10;;
20669;SDS011;10494;50.868;4.180;2022-12-18T04:02:46;52.27;;;22.10;;
20669;SDS011;10494;50.868;4.180;2022-12-18T04:05:15;58.77;;;23.33;;
20669;SDS011;10494;50.868;4.180;2022-12-18T04:07:42;46.67;;;20.50;;
20669;SDS011;10494;50.868;4.180;2022-12-18T04:10:10;53.63;;;21.73;;
20669;SDS011;10494;50.868;4.180;2022-12-18T04:12:37;55.00;;;22.77;;
20669;SDS011;10494;50.868;4.180;2022-12-18T04:15:03;57.77;;;24.00;;
20669;SDS011;10494;50.868;4.180;2022-12-18T04:17:29;59.30;;;24.53;;
20669;SDS011;10494;50.868;4.180;2022-12-18T04:19:55;59.67;;;22.47;;
20669;SDS011;10494;50.868;4.180;2022-12-18T04:22:20;54.03;;;21.03;;
20669;SDS011;10494;50.868;4.180;2022-12-18T04:24:46;55.03;;;20.97;;
20669;SDS011;10494;50.868;4.180;2022-12-18T04:27:12;48.27;;;19.57;;
20669;SDS011;10494;50.868;4.180;2022-12-18T04:29:37;47.20;;;20.43;;
20669;SDS011;10494;50.868;4.180;2022-12-18T04:32:03;43.50;;;19.67;;
20669;SDS011;10494;50.868;4.180;2022-12-18T04:34:28;50.97;;;21.03;;
20669;SDS011;10494;50.868;4.180;2022-12-18T04:36:54;50.57;;;21.57;;
20669;SDS011;10494;50.868;4.180;2022-12-18T04:39:20;50.17;;;22.13;;
20669;SDS011;10494;50.868;4.180;2022-12-18T04:41:45;51.53;;;21.80;;
20669;SDS011;10494;50.868;4.180;2022-12-18T04:44:11;52.73;;;20.20;;
20669;SDS011;10494;50.868;4.180;2022-12-18T04:46:36;47.83;;;20.73;;
20669;SDS011;10494;50.868;4.180;2022-12-18T04:49:02;47.93;;;18.93;;
20669;SDS011;10494;50.868;4.180;2022-12-18T04:51:27;47.83;;;20.23;;
20669;SDS011;10494;50.868;4.180;2022-12-18T04:53:53;52.10;;;20.70;;
20669;SDS011;10494;50.868;4.180;2022-12-18T04:56:19;50.57;;;20.00;;
20669;SDS011;10494;50.868;4.180;2022-12-18T04:58:45;39.77;;;19.23;;
20669;SDS011;10494;50.868;4.180;2022-12-18T05:01:11;42.53;;;18.37;;
20669;SDS011;10494;50.868;4.180;2022-12-18T05:03:38;39.47;;;18.20;;
20669;SDS011;10494;50.868;4.180;2022-12-18T05:06:04;43.80;;;18.20;;
20669;SDS011;10494;50.868;4.180;2022-12-18T05:08:30;37.43;;;17.03;;
20669;SDS011;10494;50.868;4.180;2022-12-18T05:11:00;37.27;;;17.37;;
20669;SDS011;10494;50.868;4.180;2022-12-18T05:13:27;36.90;;;17.07;;
20669;SDS011;10494;50.868;4.180;2022-12-18T05:15:54;42.13;;;17.83;;
20669;SDS011;10494;50.868;4.180;2022-12-18T05:18:19;37.57;;;16.33;;
20669;SDS011;10494;50.868;4.180;2022-12-18T05:20:45;38.80;;;16.67;;
20669;SDS011;10494;50.868;4.180;2022-12-18T05:23:11;41.70;;;17.07;;
20669;SDS011;10494;50.868;4.180;2022-12-18T05:25:37;39.33;;;16.80;;
20669;SDS011;10494;50.868;4.180;2022-12-18T05:28:02;37.10;;;17.13;;
20669;SDS011;10494;50.868;4.180;2022-12-18T05:30:28;39.97;;;17.37;;
20669;SDS011;10494;50.868;4.180;2022-12-18T05:32:54;36.40;;;15.93;;
20669;SDS011;10494;50.868;4.180;2022-12-18T05:35:19;36.53;;;16.87;;
20669;SDS011;10494;50.868;4.180;2022-12-18T05:37:45;39.20;;;17.50;;
20669;SDS011;10494;50.868;4.180;2022-12-18T05:40:10;41.47;;;17.20;;
20669;SDS011;10494;50.868;4.180;2022-12-18T05:42:36;37.97;;;16.00;;
20669;SDS011;10494;50.868;4.180;2022-12-18T05:45:03;32.43;;;15.23;;
20669;SDS011;10494;50.868;4.180;2022-12-18T05:47:29;35.07;;;16.30;;
20669;SDS011;10494;50.868;4.180;2022-12-18T05:49:55;39.20;;;16.00;;
20669;SDS011;10494;50.868;4.180;2022-12-18T05:52:21;34.57;;;16.07;;
20669;SDS011;10494;50.868;4.180;2022-12-18T05:54:47;38.60;;;16.70;;
20669;SDS011;10494;50.868;4.180;2022-12-18T05:57:12;29.73;;;14.73;;
20669;SDS011;10494;50.868;4.180;2022-12-18T05:59:38;42.77;;;16.70;;
20669;SDS011;10494;50.868;4.180;2022-12-18T06:02:04;35.10;;;15.53;;
20669;SDS011;10494;50.868;4.180;2022-12-18T06:04:29;34.07;;;15.20;;
20669;SDS011;10494;50.868;4.180;2022-12-18T06:06:55;37.97;;;15.93;;
20669;SDS011;10494;50.868;4.180;2022-12-18T06:09:21;33.13;;;14.67;;
20669;SDS011;10494;50.868;4.180;2022-12-18T06:11:46;34.47;;;14.87;;
20669;SDS011;10494;50.868;4.180;2022-12-18T06:14:12;32.30;;;15.43;;
20669;SDS011;10494;50.868;4.180;2022-12-18T06:16:38;38.20;;;15.47;;
20669;SDS011;10494;50.868;4.180;2022-12-18T06:19:04;34.17;;;15.23;;
20669;SDS011;10494;50.868;4.180;2022-12-18T06:21:30;33.03;;;15.13;;
20669;SDS011;10494;50.868;4.180;2022-12-18T06:23:56;39.07;;;16.00;;
20669;SDS011;10494;50.868;4.180;2022-12-18T06:26:22;30.97;;;14.87;;
20669;SDS011;10494;50.868;4.180;2022-12-18T06:28:48;39.03;;;15.77;;
20669;SDS011;10494;50.868;4.180;2022-12-18T06:31:14;35.63;;;15.60;;
20669;SDS011;10494;50.868;4.180;2022-12-18T06:33:40;33.27;;;14.93;;
20669;SDS011;10494;50.868;4.180;2022-12-18T06:36:06;30.50;;;15.37;;
20669;SDS011;10494;50.868;4.180;2022-12-18T06:38:34;33.57;;;14.40;;
20669;SDS011;10494;50.868;4.180;2022-12-18T06:43:38;30.40;;;14.57;;
20669;SDS011;10494;50.868;4.180;2022-12-18T06:46:04;32.77;;;14.37;;
20669;SDS011;10494;50.868;4.180;2022-12-18T06:48:30;30.80;;;13.87;;
20669;SDS011;10494;50.868;4.180;2022-12-18T06:50:56;32.93;;;14.67;;
20669;SDS011;10494;50.868;4.180;2022-12-18T06:53:22;31.13;;;14.63;;
20669;SDS011;10494;50.868;4.180;2022-12-18T06:55:48;32.17;;;13.60;;
20669;SDS011;10494;50.868;4.180;2022-12-18T06:58:13;36.30;;;13.97;;
20669;SDS011;10494;50.868;4.180;2022-12-18T07:00:39;33.37;;;13.83;;
20669;SDS011;10494;50.868;4.180;2022-12-18T07:03:05;33.97;;;14.00;;
20669;SDS011;10494;50.868;4.180;2022-12-18T07:05:31;31.73;;;14.30;;
20669;SDS011;10494;50.868;4.180;2022-12-18T07:07:56;28.47;;;12.90;;
20669;SDS011;10494;50.868;4.180;2022-12-18T07:10:22;29.53;;;13.80;;
20669;SDS011;10494;50.868;4.180;2022-12-18T07:12:48;29.20;;;13.40;;
20669;SDS011;10494;50.868;4.180;2022-12-18T07:15:14;29.77;;;13.20;;
20669;SDS011;10494;50.868;4.180;2022-12-18T07:17:39;31.73;;;13.77;;
20669;SDS011;10494;50.868;4.180;2022-12-18T07:20:05;31.53;;;13.00;;
20669;SDS011;10494;50.868;4.180;2022-12-18T07:22:31;26.67;;;13.17;;
20669;SDS011;10494;50.868;4.180;2022-12-18T07:24:57;31.40;;;14.50;;
20669;SDS011;10494;50.868;4.180;2022-12-18T07:27:22;38.87;;;15.93;;
20669;SDS011;10494;50.868;4.180;2022-12-18T07:29:48;35.03;;;15.63;;
20669;SDS011;10494;50.868;4.180;2022-12-18T07:32:14;37.97;;;16.50;;
20669;SDS011;10494;50.868;4.180;2022-12-18T07:34:39;30.77;;;14.03;;
20669;SDS011;10494;50.868;4.180;2022-12-18T07:37:05;32.43;;;14.17;;
20669;SDS011;10494;50.868;4.180;2022-12-18T07:39:30;29.73;;;13.47;;
20669;SDS011;10494;50.868;4.180;2022-12-18T07:41:56;29.50;;;14.20;;
20669;SDS011;10494;50.868;4.180;2022-12-18T07:44:40;27.53;;;12.47;;
20669;SDS011;10494;50.868;4.180;2022-12-18T07:47:06;26.87;;;13.87;;
20669;SDS011;10494;50.868;4.180;2022-12-18T07:49:31;27.37;;;13.23;;
20669;SDS011;10494;50.868;4.180;2022-12-18T07:51:57;31.03;;;14.17;;
20669;SDS011;10494;50.868;4.180;2022-12-18T07:54:24;28.83;;;12.73;;
20669;SDS011;10494;50.868;4.180;2022-12-18T07:56:50;30.77;;;13.47;;
20669;SDS011;10494;50.868;4.180;2022-12-18T07:59:16;30.93;;;13.20;;
20669;SDS011;10494;50.868;4.180;2022-12-18T08:01:42;28.87;;;14.93;;
20669;SDS011;10494;50.868;4.180;2022-12-18T08:04:08;25.67;;;12.23;;
20669;SDS011;10494;50.868;4.180;2022-12-18T08:06:33;31.40;;;14.37;;
20669;SDS011;10494;50.868;4.180;2022-12-18T08:08:59;26.90;;;13.53;;
20669;SDS011;10494;50.868;4.180;2022-12-18T08:11:25;26.93;;;14.63;;
20669;SDS011;10494;50.868;4.180;2022-12-18T08:13:52;33.73;;;15.07;;
20669;SDS011;10494;50.868;4.180;2022-12-18T08:16:18;27.70;;;13.37;;
20669;SDS011;10494;50.868;4.180;2022-12-18T08:18:44;32.27;;;15.30;;
20669;SDS011;10494;50.868;4.180;2022-12-18T08:21:11;30.00;;;14.97;;
20669;SDS011;10494;50.868;4.180;2022-12-18T08:23:38;27.77;;;14.10;;
20669;SDS011;10494;50.868;4.180;2022-12-18T08:26:04;23.93;;;11.47;;
20669;SDS011;10494;50.868;4.180;2022-12-18T08:28:30;22.07;;;10.23;;
20669;SDS011;10494;50.868;4.180;2022-12-18T08:30:55;16.57;;;9.27;;
20669;SDS011;10494;50.868;4.180;2022-12-18T08:33:21;17.37;;;8.67;;
20669;SDS011;10494;50.868;4.180;2022-12-18T08:35:47;20.33;;;9.60;;
20669;SDS011;10494;50.868;4.180;2022-12-18T08:38:12;17.20;;;8.90;;
20669;SDS011;10494;50.868;4.180;2022-12-18T08:40:38;16.20;;;8.40;;
20669;SDS011;10494;50.868;4.180;2022-12-18T08:43:03;21.07;;;9.77;;
20669;SDS011;10494;50.868;4.180;2022-12-18T08:45:47;19.47;;;8.57;;
20669;SDS011;10494;50.868;4.180;2022-12-18T08:48:13;15.57;;;8.53;;
20669;SDS011;10494;50.868;4.180;2022-12-18T08:50:39;14.83;;;7.40;;
20669;SDS011;10494;50.868;4.180;2022-12-18T08:53:04;16.77;;;8.33;;
20669;SDS011;10494;50.868;4.180;2022-12-18T08:55:30;16.13;;;8.43;;
20669;SDS011;10494;50.868;4.180;2022-12-18T08:57:56;15.93;;;8.30;;
20669;SDS011;10494;50.868;4.180;2022-12-18T09:00:21;15.33;;;8.40;;
20669;SDS011;10494;50.868;4.180;2022-12-18T09:02:47;18.00;;;9.00;;
20669;SDS011;10494;50.868;4.180;2022-12-18T09:05:12;15.07;;;8.43;;
20669;SDS011;10494;50.868;4.180;2022-12-18T09:07:38;15.20;;;8.67;;
20669;SDS011;10494;50.868;4.180;2022-12-18T09:10:04;17.93;;;8.27;;
20669;SDS011;10494;50.868;4.180;2022-12-18T09:12:30;14.47;;;8.13;;
20669;SDS011;10494;50.868;4.180;2022-12-18T09:14:55;18.10;;;9.37;;
20669;SDS011;10494;50.868;4.180;2022-12-18T09:17:21;15.93;;;8.40;;
20669;SDS011;10494;50.868;4.180;2022-12-18T09:19:47;17.63;;;8.33;;
20669;SDS011;10494;50.868;4.180;2022-12-18T09:22:12;16.97;;;8.07;;
20669;SDS011;10494;50.868;4.180;2022-12-18T09:24:38;16.03;;;8.50;;
20669;SDS011;10494;50.868;4.180;2022-12-18T09:27:04;16.33;;;8.90;;
20669;SDS011;10494;50.868;4.180;2022-12-18T09:29:29;17.13;;;8.97;;
20669;SDS011;10494;50.868;4.180;2022-12-18T09:31:55;17.20;;;8.73;;
20669;SDS011;10494;50.868;4.180;2022-12-18T09:34:21;13.47;;;8.17;;
20669;SDS011;10494;50.868;4.180;2022-12-18T09:36:47;18.70;;;9.47;;
20669;SDS011;10494;50.868;4.180;2022-12-18T09:39:13;15.30;;;8.80;;
20669;SDS011;10494;50.868;4.180;2022-12-18T09:44:29;20.13;;;9.43;;
20669;SDS011;10494;50.868;4.180;2022-12-18T09:49:51;20.43;;;10.00;;
20669;SDS011;10494;50.868;4.180;2022-12-18T09:52:39;19.70;;;10.37;;
20669;SDS011;10494;50.868;4.180;2022-12-18T09:57:35;16.10;;;8.93;;
20669;SDS011;10494;50.868;4.180;2022-12-18T10:00:15;18.17;;;9.57;;
20669;SDS011;10494;50.868;4.180;2022-12-18T10:02:43;18.63;;;9.63;;
20669;SDS011;10494;50.868;4.180;2022-12-18T10:05:13;19.77;;;9.63;;
20669;SDS011;10494;50.868;4.180;2022-12-18T10:10:38;20.63;;;10.37;;
20669;SDS011;10494;50.868;4.180;2022-12-18T10:21:34;17.57;;;9.40;;
20669;SDS011;10494;50.868;4.180;2022-12-18T10:24:17;19.50;;;9.67;;
20669;SDS011;10494;50.868;4.180;2022-12-18T10:26:47;17.67;;;9.60;;
20669;SDS011;10494;50.868;4.180;2022-12-18T10:29:14;19.73;;;10.47;;
20669;SDS011;10494;50.868;4.180;2022-12-18T10:31:40;20.17;;;10.13;;
20669;SDS011;10494;50.868;4.180;2022-12-18T10:34:09;22.60;;;10.87;;
20669;SDS011;10494;50.868;4.180;2022-12-18T10:36:36;21.80;;;10.97;;
20669;SDS011;10494;50.868;4.180;2022-12-18T10:39:22;18.13;;;10.27;;
20669;SDS011;10494;50.868;4.180;2022-12-18T10:41:49;21.67;;;10.20;;
20669;SDS011;10494;50.868;4.180;2022-12-18T10:44:17;16.77;;;9.90;;
20669;SDS011;10494;50.868;4.180;2022-12-18T10:46:45;20.70;;;10.67;;
20669;SDS011;10494;50.868;4.180;2022-12-18T10:49:32;21.20;;;9.93;;
20669;SDS011;10494;50.868;4.180;2022-12-18T10:59:52;23.20;;;10.77;;
20669;SDS011;10494;50.868;4.180;2022-12-18T11:02:27;21.00;;;10.70;;
20669;SDS011;10494;50.868;4.180;2022-12-18T11:04:58;19.50;;;10.43;;
20669;SDS011;10494;50.868;4.180;2022-12-18T11:07:24;25.63;;;9.80;;
20669;SDS011;10494;50.868;4.180;2022-12-18T11:09:59;17.50;;;9.57;;
20669;SDS011;10494;50.868;4.180;2022-12-18T11:12:25;20.13;;;10.37;;
20669;SDS011;10494;50.868;4.180;2022-12-18T11:14:54;20.20;;;10.60;;
20669;SDS011;10494;50.868;4.180;2022-12-18T11:17:23;17.37;;;10.03;;
20669;SDS011;10494;50.868;4.180;2022-12-18T11:20:03;19.27;;;10.60;;
20669;SDS011;10494;50.868;4.180;2022-12-18T11:22:32;21.20;;;10.37;;
20669;SDS011;10494;50.868;4.180;2022-12-18T11:25:01;20.97;;;10.30;;
20669;SDS011;10494;50.868;4.180;2022-12-18T11:27:31;19.57;;;8.97;;
20669;SDS011;10494;50.868;4.180;2022-12-18T11:30:08;18.67;;;9.93;;
20669;SDS011;10494;50.868;4.180;2022-12-18T11:32:45;18.93;;;9.70;;
20669;SDS011;10494;50.868;4.180;2022-12-18T11:35:45;20.43;;;10.30;;
20669;SDS011;10494;50.868;4.180;2022-12-18T11:38:21;18.47;;;9.53;;
20669;SDS011;10494;50.868;4.180;2022-12-18T11:41:37;19.67;;;9.77;;
20669;SDS011;10494;50.868;4.180;2022-12-18T11:50:00;17.37;;;9.37;;
20669;SDS011;10494;50.868;4.180;2022-12-18T11:52:27;18.87;;;9.83;;
20669;SDS011;10494;50.868;4.180;2022-12-18T11:55:05;20.37;;;9.60;;
20669;SDS011;10494;50.868;4.180;2022-12-18T12:00:41;18.13;;;9.60;;
20669;SDS011;10494;50.868;4.180;2022-12-18T12:06:44;20.90;;;10.20;;
20669;SDS011;10494;50.868;4.180;2022-12-18T12:09:43;21.73;;;11.03;;
20669;SDS011;10494;50.868;4.180;2022-12-18T12:14:46;26.23;;;11.00;;
20669;SDS011;10494;50.868;4.180;2022-12-18T12:18:17;21.53;;;10.77;;
20669;SDS011;10494;50.868;4.180;2022-12-18T12:25:57;19.50;;;10.77;;
20669;SDS011;10494;50.868;4.180;2022-12-18T12:28:55;28.50;;;10.47;;
20669;SDS011;10494;50.868;4.180;2022-12-18T12:31:51;21.87;;;10.13;;
20669;SDS011;10494;50.868;4.180;2022-12-18T12:34:52;18.53;;;9.03;;
20669;SDS011;10494;50.868;4.180;2022-12-18T12:37:33;20.13;;;10.10;;
20669;SDS011;10494;50.868;4.180;2022-12-18T12:40:13;22.40;;;10.27;;
20669;SDS011;10494;50.868;4.180;2022-12-18T12:42:47;19.87;;;10.13;;
20669;SDS011;10494;50.868;4.180;2022-12-18T12:48:16;22.33;;;10.90;;
20669;SDS011;10494;50.868;4.180;2022-12-18T12:50:49;20.60;;;10.80;;
20669;SDS011;10494;50.868;4.180;2022-12-18T12:53:23;21.33;;;10.53;;
20669;SDS011;10494;50.868;4.180;2022-12-18T12:55:53;22.00;;;11.17;;
20669;SDS011;10494;50.868;4.180;2022-12-18T12:58:23;22.87;;;10.83;;
20669;SDS011;10494;50.868;4.180;2022-12-18T13:01:06;22.17;;;11.47;;
20669;SDS011;10494;50.868;4.180;2022-12-18T13:09:15;30.10;;;13.90;;
20669;SDS011;10494;50.868;4.180;2022-12-18T13:11:42;29.50;;;14.20;;
20669;SDS011;10494;50.868;4.180;2022-12-18T13:17:14;30.37;;;13.90;;
20669;SDS011;10494;50.868;4.180;2022-12-18T13:19:56;28.53;;;12.70;;
20669;SDS011;10494;50.868;4.180;2022-12-18T13:22:35;30.07;;;14.63;;
20669;SDS011;10494;50.868;4.180;2022-12-18T13:41:02;33.63;;;16.43;;
20669;SDS011;10494;50.868;4.180;2022-12-18T13:43:50;30.80;;;14.93;;
20669;SDS011;10494;50.868;4.180;2022-12-18T13:51:48;37.47;;;15.73;;
20669;SDS011;10494;50.868;4.180;2022-12-18T13:57:01;33.57;;;16.23;;
20669;SDS011;10494;50.868;4.180;2022-12-18T13:59:34;32.17;;;15.77;;
20669;SDS011;10494;50.868;4.180;2022-12-18T14:02:07;39.10;;;17.20;;
20669;SDS011;10494;50.868;4.180;2022-12-18T14:04:39;35.07;;;16.23;;
20669;SDS011;10494;50.868;4.180;2022-12-18T14:07:10;32.60;;;16.17;;
20669;SDS011;10494;50.868;4.180;2022-12-18T14:10:00;33.43;;;16.70;;
20669;SDS011;10494;50.868;4.180;2022-12-18T14:15:23;37.53;;;17.27;;
20669;SDS011;10494;50.868;4.180;2022-12-18T14:17:51;37.70;;;16.83;;
20669;SDS011;10494;50.868;4.180;2022-12-18T14:20:22;37.60;;;18.00;;
20669;SDS011;10494;50.868;4.180;2022-12-18T14:22:49;33.77;;;16.67;;
20669;SDS011;10494;50.868;4.180;2022-12-18T14:27:47;39.50;;;18.23;;
20669;SDS011;10494;50.868;4.180;2022-12-18T14:30:27;33.87;;;16.17;;
20669;SDS011;10494;50.868;4.180;2022-12-18T14:33:00;42.67;;;18.07;;
20669;SDS011;10494;50.868;4.180;2022-12-18T14:35:41;36.57;;;16.50;;
20669;SDS011;10494;50.868;4.180;2022-12-18T14:41:03;35.37;;;17.03;;
20669;SDS011;10494;50.868;4.180;2022-12-18T14:43:37;34.00;;;16.40;;
20669;SDS011;10494;50.868;4.180;2022-12-18T14:46:04;36.40;;;16.73;;
20669;SDS011;10494;50.868;4.180;2022-12-18T14:48:49;38.33;;;16.83;;
20669;SDS011;10494;50.868;4.180;2022-12-18T14:51:22;39.67;;;17.90;;
20669;SDS011;10494;50.868;4.180;2022-12-18T14:53:53;38.27;;;17.90;;
20669;SDS011;10494;50.868;4.180;2022-12-18T14:56:28;38.23;;;17.20;;
20669;SDS011;10494;50.868;4.180;2022-12-18T14:58:55;36.93;;;17.63;;
20669;SDS011;10494;50.868;4.180;2022-12-18T15:02:25;37.43;;;16.87;;
20669;SDS011;10494;50.868;4.180;2022-12-18T15:04:34;35.20;;;17.90;;
20669;SDS011;10494;50.868;4.180;2022-12-18T15:09:41;34.80;;;16.83;;
20669;SDS011;10494;50.868;4.180;2022-12-18T15:12:26;41.43;;;17.43;;
20669;SDS011;10494;50.868;4.180;2022-12-18T15:15:05;38.40;;;16.30;;
20669;SDS011;10494;50.868;4.180;2022-12-18T15:17:56;41.87;;;17.33;;
20669;SDS011;10494;50.868;4.180;2022-12-18T15:20:26;39.63;;;18.83;;
20669;SDS011;10494;50.868;4.180;2022-12-18T15:22:53;35.67;;;16.73;;
20669;SDS011;10494;50.868;4.180;2022-12-18T15:27:59;34.63;;;17.13;;
20669;SDS011;10494;50.868;4.180;2022-12-18T15:30:25;32.17;;;16.00;;
20669;SDS011;10494;50.868;4.180;2022-12-18T15:32:51;36.43;;;16.80;;
20669;SDS011;10494;50.868;4.180;2022-12-18T15:35:21;39.27;;;18.07;;
20669;SDS011;10494;50.868;4.180;2022-12-18T15:37:49;38.00;;;18.50;;
20669;SDS011;10494;50.868;4.180;2022-12-18T15:40:16;39.60;;;16.90;;
20669;SDS011;10494;50.868;4.180;2022-12-18T15:42:44;40.73;;;18.63;;
20669;SDS011;10494;50.868;4.180;2022-12-18T15:45:29;36.47;;;17.13;;
20669;SDS011;10494;50.868;4.180;2022-12-18T15:47:55;34.03;;;16.43;;
20669;SDS011;10494;50.868;4.180;2022-12-18T15:50:20;34.33;;;16.43;;
20669;SDS011;10494;50.868;4.180;2022-12-18T15:52:47;43.10;;;19.67;;
20669;SDS011;10494;50.868;4.180;2022-12-18T15:55:15;36.47;;;16.50;;
20669;SDS011;10494;50.868;4.180;2022-12-18T15:58:02;37.27;;;16.40;;
20669;SDS011;10494;50.868;4.180;2022-12-18T16:00:28;33.90;;;15.60;;
20669;SDS011;10494;50.868;4.180;2022-12-18T16:02:54;33.37;;;16.30;;
20669;SDS011;10494;50.868;4.180;2022-12-18T16:05:20;40.60;;;18.83;;
20669;SDS011;10494;50.868;4.180;2022-12-18T16:07:47;36.30;;;17.17;;
20669;SDS011;10494;50.868;4.180;2022-12-18T16:10:13;37.57;;;15.93;;
20669;SDS011;10494;50.868;4.180;2022-12-18T16:12:38;40.77;;;17.67;;
20669;SDS011;10494;50.868;4.180;2022-12-18T16:15:05;38.00;;;16.07;;
20669;SDS011;10494;50.868;4.180;2022-12-18T16:17:31;35.40;;;16.97;;
20669;SDS011;10494;50.868;4.180;2022-12-18T16:19:57;38.77;;;17.30;;
20669;SDS011;10494;50.868;4.180;2022-12-18T16:22:23;36.73;;;16.70;;
20669;SDS011;10494;50.868;4.180;2022-12-18T16:24:52;42.23;;;16.57;;
20669;SDS011;10494;50.868;4.180;2022-12-18T16:27:18;37.97;;;16.13;;
20669;SDS011;10494;50.868;4.180;2022-12-18T16:29:45;36.93;;;16.60;;
20669;SDS011;10494;50.868;4.180;2022-12-18T16:32:15;32.80;;;15.47;;
20669;SDS011;10494;50.868;4.180;2022-12-18T16:34:42;34.50;;;15.50;;
20669;SDS011;10494;50.868;4.180;2022-12-18T16:37:09;32.87;;;16.50;;
20669;SDS011;10494;50.868;4.180;2022-12-18T16:39:36;34.53;;;16.23;;
20669;SDS011;10494;50.868;4.180;2022-12-18T16:42:08;33.00;;;15.73;;
20669;SDS011;10494;50.868;4.180;2022-12-18T16:44:41;35.90;;;16.77;;
20669;SDS011;10494;50.868;4.180;2022-12-18T16:47:07;31.47;;;15.53;;